Time;durP1;ratioP1;P1;durP2;ratioP2;P2;SDS_P1;SDS_P2;PMS_P1;PMS_P2;Temp;Humidity;BMP_temperature;BMP_pressure;BME280_temperature;BME280_humidity;BME280_pressure;Samples;Min_cycle;Max_cycle;Signal;HPM_P1;HPM_P2
2022/08/28 00:00:11;;;;;;;4.53;2.33;;;16.70;79.30;;;;;;5031303;28;20025;-57
2022/08/28 00:02:37;;;;;;;4.38;1.58;;;16.70;79.40;;;;;;5033384;28;20021;-57
2022/08/28 00:05:05;;;;;;;3.40;1.92;;;16.70;79.60;;;;;;5032494;28;20158;-57
2022/08/28 00:07:30;;;;;;;5.95;2.42;;;16.60;79.70;;;;;;5033181;28;20489;-58
2022/08/28 00:09:56;;;;;;;4.93;1.92;;;16.60;79.90;;;;;;5032750;28;20080;-57
2022/08/28 00:12:22;;;;;;;4.43;2.10;;;16.60;80.10;;;;;;5033060;28;20029;-57
2022/08/28 00:14:47;;;;;;;7.95;2.00;;;16.50;80.10;;;;;;5033227;28;20017;-58
2022/08/28 00:17:13;;;;;;;3.88;1.90;;;16.60;80.20;;;;;;5031730;28;20021;-57
2022/08/28 00:19:39;;;;;;;4.35;1.88;;;16.50;80.30;;;;;;5032930;28;20025;-58
2022/08/28 00:22:06;;;;;;;7.80;2.13;;;16.50;80.30;;;;;;5032977;28;20086;-57
2022/08/28 00:24:32;;;;;;;4.45;2.60;;;16.50;80.50;;;;;;5032916;28;20026;-57
2022/08/28 00:29:58;;;;;;;4.60;1.77;;;16.40;81.10;;;;;;5022387;28;20095;-57
2022/08/28 00:32:24;;;;;;;3.65;2.38;;;16.30;81.40;;;;;;5032447;28;20045;-58
2022/08/28 00:34:50;;;;;;;6.00;2.60;;;16.30;81.50;;;;;;5033002;28;20018;-58
2022/08/28 00:37:16;;;;;;;7.30;2.33;;;16.30;81.80;;;;;;5032039;28;20020;-57
2022/08/28 00:39:42;;;;;;;6.40;2.40;;;16.20;82.00;;;;;;5032326;28;20076;-57
2022/08/28 00:42:07;;;;;;;5.38;2.40;;;16.20;82.20;;;;;;5032670;28;20022;-57
2022/08/28 00:44:33;;;;;;;4.82;2.13;;;16.20;82.50;;;;;;5032576;28;20034;-57
2022/08/28 00:46:59;;;;;;;6.88;2.40;;;16.10;82.60;;;;;;5032320;28;20018;-57
2022/08/28 00:49:36;;;;;;;3.85;2.00;;;16.10;82.90;;;;;;5032747;28;20025;-58
2022/08/28 00:52:07;;;;;;;6.13;2.58;;;16.00;83.20;;;;;;5030832;28;20525;-57
2022/08/28 00:54:37;;;;;;;3.60;1.98;;;16.00;83.50;;;;;;5032757;28;20025;-57
2022/08/28 00:57:05;;;;;;;;;;;15.90;83.70;;;;;;5032024;28;20025;-57
2022/08/28 00:59:31;;;;;;;5.57;2.67;;;15.80;83.90;;;;;;5032499;28;20475;-58
2022/08/28 01:01:57;;;;;;;4.47;2.53;;;15.70;84.40;;;;;;5030693;28;20030;-57
2022/08/28 01:04:26;;;;;;;6.43;2.30;;;15.70;84.40;;;;;;5031902;28;20034;-57
2022/08/28 01:06:54;;;;;;;5.80;2.53;;;15.70;84.60;;;;;;5020634;28;20018;-58
2022/08/28 01:09:21;;;;;;;4.25;2.22;;;15.70;84.90;;;;;;5031988;28;20442;-57
2022/08/28 01:11:50;;;;;;;5.07;2.58;;;15.70;84.90;;;;;;5032435;28;20028;-58
2022/08/28 01:14:19;;;;;;;7.63;2.17;;;15.70;84.90;;;;;;5031655;28;20025;-57
2022/08/28 01:16:48;;;;;;;6.78;2.30;;;15.70;85.00;;;;;;5031964;28;20093;-58
2022/08/28 01:19:19;;;;;;;9.03;2.70;;;15.60;85.10;;;;;;5031983;28;20021;-57
2022/08/28 01:22:10;;;;;;;6.88;1.95;;;15.60;85.20;;;;;;5032235;28;20033;-57
2022/08/28 01:24:38;;;;;;;6.00;2.28;;;15.60;85.20;;;;;;5020252;28;20018;-57
2022/08/28 01:27:04;;;;;;;4.70;2.65;;;15.60;85.50;;;;;;5032152;28;20452;-57
2022/08/28 01:29:30;;;;;;;8.05;2.40;;;15.50;85.60;;;;;;5032286;28;20053;-57
2022/08/28 01:31:56;;;;;;;5.05;2.58;;;15.50;85.70;;;;;;5032060;28;20124;-57
2022/08/28 01:34:22;;;;;;;5.18;2.00;;;15.50;85.90;;;;;;5031971;28;20025;-57
2022/08/28 01:36:48;;;;;;;5.82;2.20;;;15.40;86.00;;;;;;5031896;28;20036;-58
2022/08/28 01:39:17;;;;;;;6.60;1.92;;;15.40;86.00;;;;;;5032214;28;20490;-57
2022/08/28 01:41:45;;;;;;;4.47;1.83;;;15.40;86.20;;;;;;5031995;28;20025;-57
2022/08/28 01:44:13;;;;;;;3.97;1.50;;;15.30;86.20;;;;;;5031933;28;20080;-57
2022/08/28 01:46:42;;;;;;;5.38;2.10;;;15.30;86.30;;;;;;5031607;28;20072;-57
2022/08/28 01:49:10;;;;;;;3.75;1.77;;;15.30;86.30;;;;;;5032089;28;20121;-57
2022/08/28 01:51:37;;;;;;;6.00;1.98;;;15.30;86.40;;;;;;5031732;28;20033;-57
2022/08/28 01:54:04;;;;;;;5.82;1.80;;;15.30;86.50;;;;;;5032082;28;20022;-57
2022/08/28 01:56:30;;;;;;;4.65;1.77;;;15.30;86.60;;;;;;5031872;28;20075;-57
2022/08/28 01:58:56;;;;;;;4.45;1.60;;;15.20;86.80;;;;;;5032199;28;20096;-57
2022/08/28 02:01:21;;;;;;;5.68;2.13;;;15.20;86.90;;;;;;5031681;28;20024;-57
2022/08/28 02:03:48;;;;;;;5.70;2.20;;;15.10;87.00;;;;;;5030884;28;20029;-57
2022/08/28 02:06:15;;;;;;;5.75;2.20;;;15.10;87.20;;;;;;5031454;28;20551;-57
2022/08/28 02:08:41;;;;;;;6.20;2.78;;;15.10;87.40;;;;;;5031699;28;20021;-57
2022/08/28 02:11:07;;;;;;;6.63;2.72;;;15.10;87.50;;;;;;5032022;28;20464;-57
2022/08/28 02:13:34;;;;;;;6.82;2.50;;;15.00;88.00;;;;;;5031710;28;20029;-57
2022/08/28 02:16:00;;;;;;;5.75;2.45;;;15.00;88.40;;;;;;5035189;28;20068;-57
2022/08/28 02:18:26;;;;;;;6.25;1.98;;;14.90;88.60;;;;;;5035376;28;20466;-57
2022/08/28 02:20:51;;;;;;;8.10;2.20;;;14.90;88.90;;;;;;5035385;28;20104;-57
2022/08/28 02:23:17;;;;;;;5.50;2.33;;;14.90;89.10;;;;;;5035145;28;20021;-57
2022/08/28 02:25:42;;;;;;;5.22;2.30;;;14.80;89.20;;;;;;5035226;28;20030;-57
2022/08/28 02:28:08;;;;;;;7.15;2.25;;;14.80;89.50;;;;;;5034976;28;20061;-57
2022/08/28 02:30:34;;;;;;;7.00;2.55;;;14.80;89.70;;;;;;5034403;28;20095;-58
2022/08/28 02:33:00;;;;;;;11.45;2.60;;;14.70;89.80;;;;;;5034719;28;20382;-57
2022/08/28 02:35:26;;;;;;;5.55;2.17;;;14.80;90.00;;;;;;5034819;28;20496;-57
2022/08/28 02:37:52;;;;;;;3.58;2.08;;;14.70;90.00;;;;;;5033342;28;20036;-57
2022/08/28 02:40:20;;;;;;;6.07;1.85;;;14.70;90.10;;;;;;5035073;28;20043;-57
2022/08/28 02:42:46;;;;;;;4.70;2.20;;;14.70;90.00;;;;;;5034640;28;20029;-57
2022/08/28 02:45:13;;;;;;;6.78;2.13;;;14.70;90.40;;;;;;5034655;28;20435;-57
2022/08/28 02:47:41;;;;;;;3.13;1.55;;;14.70;90.10;;;;;;5034493;28;20036;-57
2022/08/28 02:50:08;;;;;;;4.03;1.80;;;14.70;90.10;;;;;;5034733;28;20039;-57
2022/08/28 02:52:36;;;;;;;4.45;1.73;;;14.70;90.10;;;;;;5033055;28;20033;-57
2022/08/28 02:55:02;;;;;;;4.57;1.73;;;14.60;90.10;;;;;;5035056;28;20026;-57
2022/08/28 02:57:29;;;;;;;2.50;1.55;;;14.70;90.10;;;;;;5032909;28;20048;-57
2022/08/28 02:59:55;;;;;;;5.43;1.60;;;14.60;90.10;;;;;;5034695;28;20432;-57
2022/08/28 03:02:21;;;;;;;4.22;1.45;;;14.60;90.10;;;;;;5034446;28;20085;-57
2022/08/28 03:04:47;;;;;;;7.07;1.70;;;14.60;90.10;;;;;;5034596;28;20092;-57
2022/08/28 03:07:14;;;;;;;3.60;1.75;;;14.60;90.20;;;;;;5034184;28;20088;-58
2022/08/28 03:09:40;;;;;;;3.45;1.90;;;14.50;90.30;;;;;;5034358;28;20037;-58
2022/08/28 03:12:06;;;;;;;4.63;1.88;;;14.50;90.30;;;;;;5033975;28;20083;-57
2022/08/28 03:14:32;;;;;;;4.38;1.88;;;14.50;90.40;;;;;;5034236;28;20109;-57
2022/08/28 03:16:58;;;;;;;6.10;2.00;;;14.50;90.40;;;;;;5033999;28;20100;-57
2022/08/28 03:19:24;;;;;;;4.07;2.00;;;14.40;90.40;;;;;;5034163;28;20021;-57
2022/08/28 03:21:49;;;;;;;4.40;1.88;;;14.40;90.50;;;;;;5033930;28;20394;-58
2022/08/28 03:24:15;;;;;;;3.97;1.95;;;14.40;90.50;;;;;;5034411;28;20029;-57
2022/08/28 03:26:40;;;;;;;3.92;2.13;;;14.40;90.60;;;;;;5031617;28;20092;-57
2022/08/28 03:29:06;;;;;;;4.45;1.85;;;14.40;90.60;;;;;;5033838;28;20049;-57
2022/08/28 03:31:34;;;;;;;4.35;2.40;;;14.30;90.70;;;;;;5033744;28;20036;-57
2022/08/28 03:34:00;;;;;;;3.55;1.80;;;14.30;90.70;;;;;;5034484;28;20112;-57
2022/08/28 03:36:27;;;;;;;4.40;2.08;;;14.30;90.80;;;;;;5033387;28;20117;-57
2022/08/28 03:38:55;;;;;;;5.65;2.30;;;14.30;90.80;;;;;;5034144;28;20532;-57
2022/08/28 03:41:22;;;;;;;5.18;2.10;;;14.30;90.90;;;;;;5032068;28;20099;-57
2022/08/28 03:43:49;;;;;;;5.57;2.25;;;14.30;90.90;;;;;;5033825;28;20044;-57
2022/08/28 03:46:19;;;;;;;4.18;1.90;;;14.20;90.90;;;;;;5033450;28;20504;-57
2022/08/28 03:48:45;;;;;;;4.05;1.92;;;14.20;91.00;;;;;;5032978;28;20029;-57
2022/08/28 03:51:14;;;;;;;6.18;2.50;;;14.20;91.10;;;;;;5033003;28;20059;-57
2022/08/28 03:53:41;;;;;;;4.30;1.92;;;14.20;91.10;;;;;;5033751;28;20045;-57
2022/08/28 03:56:14;;;;;;;6.63;2.05;;;14.20;91.20;;;;;;5032970;28;20018;-57
2022/08/28 03:58:41;;;;;;;5.32;2.25;;;14.20;91.20;;;;;;5033729;28;20025;-57
2022/08/28 04:01:07;;;;;;;4.18;2.13;;;14.10;91.30;;;;;;5033212;28;20061;-57
2022/08/28 04:03:32;;;;;;;4.03;1.80;;;14.10;91.30;;;;;;5033320;28;20061;-57
2022/08/28 04:05:59;;;;;;;3.13;1.67;;;14.10;91.30;;;;;;5032877;28;20462;-57
2022/08/28 04:08:24;;;;;;;4.03;1.75;;;14.10;91.40;;;;;;5032824;28;20485;-57
2022/08/28 04:10:51;;;;;;;5.57;1.73;;;14.10;91.40;;;;;;5033374;28;20083;-57
2022/08/28 04:13:18;;;;;;;3.30;1.80;;;14.10;91.40;;;;;;5033137;28;20030;-57
2022/08/28 04:15:44;;;;;;;3.50;1.63;;;14.00;91.40;;;;;;5018903;28;20049;-57
2022/08/28 04:18:11;;;;;;;3.95;1.55;;;14.00;91.50;;;;;;5033055;28;20087;-58
2022/08/28 04:20:37;;;;;;;5.00;1.65;;;14.00;91.50;;;;;;5032991;28;20424;-57
2022/08/28 04:23:06;;;;;;;5.13;1.60;;;14.00;91.50;;;;;;5032721;28;20022;-57
2022/08/28 04:25:32;;;;;;;3.00;1.60;;;14.00;91.50;;;;;;5032526;28;20032;-57
2022/08/28 04:27:57;;;;;;;4.47;2.10;;;14.00;91.60;;;;;;5033011;28;20100;-57
2022/08/28 04:30:23;;;;;;;4.53;1.50;;;14.00;91.60;;;;;;5032886;28;20033;-57
2022/08/28 04:32:48;;;;;;;3.72;1.80;;;13.90;91.60;;;;;;5032963;28;20029;-57
2022/08/28 04:35:14;;;;;;;4.38;1.70;;;13.90;91.70;;;;;;5018339;28;20120;-57
2022/08/28 04:37:42;;;;;;;3.75;1.35;;;13.90;91.70;;;;;;5031203;28;20025;-57
2022/08/28 04:40:09;;;;;;;7.63;1.75;;;13.90;91.70;;;;;;5032643;28;20020;-57
2022/08/28 04:42:36;;;;;;;3.33;2.03;;;13.90;91.80;;;;;;5032375;28;20025;-57
2022/08/28 04:45:02;;;;;;;4.45;1.42;;;13.90;91.80;;;;;;5020293;28;20026;-57
2022/08/28 04:47:28;;;;;;;4.32;2.15;;;13.90;91.90;;;;;;5032612;28;20040;-58
2022/08/28 04:49:54;;;;;;;4.40;1.75;;;13.90;91.90;;;;;;5031883;28;20033;-57
2022/08/28 04:52:21;;;;;;;4.55;1.90;;;13.90;91.90;;;;;;5030977;28;20056;-57
2022/08/28 04:54:47;;;;;;;5.03;1.50;;;13.80;91.90;;;;;;5031656;28;20424;-58
2022/08/28 04:57:12;;;;;;;5.13;1.63;;;13.80;92.00;;;;;;5028569;28;20481;-58
2022/08/28 04:59:38;;;;;;;2.00;1.35;;;13.80;92.00;;;;;;5028552;28;20040;-57
2022/08/28 05:02:04;;;;;;;3.55;1.63;;;13.80;92.10;;;;;;5028322;28;20028;-57
2022/08/28 05:04:30;;;;;;;4.30;1.48;;;13.80;92.10;;;;;;5028650;28;20017;-58
2022/08/28 05:06:55;;;;;;;3.08;1.73;;;13.80;92.20;;;;;;5022883;28;20477;-58
2022/08/28 05:09:21;;;;;;;3.65;1.60;;;13.80;92.20;;;;;;5028665;28;20025;-57
2022/08/28 05:11:48;;;;;;;3.10;1.45;;;13.80;92.20;;;;;;5024168;28;20101;-58
2022/08/28 05:14:14;;;;;;;5.20;1.80;;;13.90;92.30;;;;;;5026920;28;20128;-58
2022/08/28 05:16:49;;;;;;;3.85;2.05;;;13.80;92.30;;;;;;5028697;28;20475;-57
2022/08/28 05:19:17;;;;;;;4.53;1.40;;;13.90;92.30;;;;;;5026877;28;20021;-57
2022/08/28 05:21:42;;;;;;;6.28;1.65;;;13.80;92.40;;;;;;5028333;28;20037;-57
2022/08/28 05:24:09;;;;;;;6.55;1.45;;;13.90;92.40;;;;;;5028198;28;20025;-58
2022/08/28 05:26:36;;;;;;;4.05;1.33;;;13.90;92.40;;;;;;5028613;28;20029;-57
2022/08/28 05:29:03;;;;;;;3.65;1.95;;;13.90;92.50;;;;;;5028285;28;20041;-57
2022/08/28 05:31:30;;;;;;;5.55;2.00;;;13.90;92.50;;;;;;5028315;28;20396;-57
2022/08/28 05:33:55;;;;;;;5.43;1.58;;;13.90;92.60;;;;;;5028209;28;20029;-58
2022/08/28 05:36:23;;;;;;;3.47;1.52;;;13.90;92.70;;;;;;5028382;28;20033;-57
2022/08/28 05:38:50;;;;;;;4.32;1.42;;;13.90;92.80;;;;;;5026948;28;20028;-57
2022/08/28 05:41:21;;;;;;;3.90;1.92;;;13.90;92.80;;;;;;5028064;28;20036;-57
2022/08/28 05:43:47;;;;;;;6.18;1.83;;;13.90;92.80;;;;;;5026511;28;20022;-57
2022/08/28 05:46:15;;;;;;;5.32;1.60;;;13.90;92.90;;;;;;5027996;28;20017;-57
2022/08/28 05:48:41;;;;;;;6.75;1.35;;;14.00;92.90;;;;;;5028606;28;20021;-57
2022/08/28 05:51:09;;;;;;;4.47;1.38;;;14.00;93.00;;;;;;5031693;28;20021;-57
2022/08/28 05:53:40;;;;;;;3.05;1.40;;;14.00;93.00;;;;;;5033068;28;20036;-57
2022/08/28 05:56:08;;;;;;;2.58;1.40;;;14.10;93.00;;;;;;5035291;28;20023;-58
2022/08/28 05:58:34;;;;;;;6.57;1.90;;;14.10;93.40;;;;;;5035323;28;20439;-58
2022/08/28 06:01:09;;;;;;;4.57;2.00;;;14.10;93.20;;;;;;5034561;28;20481;-57
2022/08/28 06:03:36;;;;;;;5.38;2.00;;;14.10;93.30;;;;;;5023657;28;20039;-57
2022/08/28 06:06:02;;;;;;;4.88;1.75;;;14.10;93.40;;;;;;5034227;28;20432;-58
2022/08/28 06:08:28;;;;;;;7.88;2.80;;;14.20;93.50;;;;;;5033792;28;20027;-57
2022/08/28 06:10:55;;;;;;;6.18;1.75;;;14.20;93.60;;;;;;5032814;28;20032;-58
2022/08/28 06:13:21;;;;;;;3.30;1.50;;;14.20;93.70;;;;;;5032303;28;20029;-57
2022/08/28 06:15:47;;;;;;;5.13;2.20;;;14.30;93.70;;;;;;5033806;28;20041;-57
2022/08/28 06:18:13;;;;;;;4.07;1.90;;;14.30;93.90;;;;;;5033802;28;20014;-58
2022/08/28 06:20:41;;;;;;;7.65;2.00;;;14.30;93.90;;;;;;5034633;28;20013;-57
2022/08/28 06:23:08;;;;;;;5.80;2.13;;;14.40;94.10;;;;;;5034586;28;20702;-57
2022/08/28 06:25:38;;;;;;;5.72;2.08;;;14.40;94.20;;;;;;5033126;28;20033;-57
2022/08/28 06:28:05;;;;;;;5.20;1.83;;;14.50;94.40;;;;;;5031216;28;20023;-57
2022/08/28 06:30:30;;;;;;;4.53;2.13;;;14.50;94.40;;;;;;5031178;28;20482;-57
2022/08/28 06:32:56;;;;;;;4.65;1.77;;;14.50;94.40;;;;;;5031587;28;20033;-57
2022/08/28 06:35:22;;;;;;;3.60;1.38;;;14.60;94.50;;;;;;5031123;28;20290;-57
2022/08/28 06:37:47;;;;;;;4.78;1.40;;;14.70;94.40;;;;;;5032454;28;20025;-57
2022/08/28 06:40:13;;;;;;;7.45;2.17;;;14.70;94.40;;;;;;5031953;28;20504;-57
2022/08/28 06:42:38;;;;;;;5.55;2.15;;;14.80;94.50;;;;;;5032827;28;20068;-57
2022/08/28 06:45:05;;;;;;;6.15;1.88;;;14.80;94.60;;;;;;5032861;28;20392;-57
2022/08/28 06:47:30;;;;;;;5.10;1.73;;;14.90;94.60;;;;;;5032595;28;20026;-57
2022/08/28 06:49:56;;;;;;;4.00;1.50;;;14.90;94.70;;;;;;5032801;28;20269;-57
2022/08/28 06:52:21;;;;;;;7.90;1.55;;;15.00;94.70;;;;;;5034268;28;20018;-58
2022/08/28 06:54:47;;;;;;;4.82;1.60;;;15.00;94.60;;;;;;5033156;28;20545;-57
2022/08/28 06:57:12;;;;;;;5.43;1.83;;;15.10;94.70;;;;;;5033731;28;20025;-57
2022/08/28 06:59:38;;;;;;;5.82;1.58;;;15.20;94.70;;;;;;5034410;28;20017;-57
2022/08/28 07:02:07;;;;;;;6.70;1.90;;;15.20;94.70;;;;;;5033568;28;20079;-57
2022/08/28 07:04:33;;;;;;;3.78;1.75;;;15.30;94.70;;;;;;5034617;28;20037;-57
2022/08/28 07:06:58;;;;;;;5.55;1.40;;;15.40;94.60;;;;;;5034575;28;20385;-57
2022/08/28 07:09:24;;;;;;;6.05;2.05;;;15.40;94.60;;;;;;5034554;28;20228;-57
2022/08/28 07:11:50;;;;;;;4.68;1.63;;;15.50;94.50;;;;;;5034188;28;20119;-57
2022/08/28 07:14:24;;;;;;;7.38;1.73;;;15.50;94.40;;;;;;5034003;28;20147;-57
2022/08/28 07:16:50;;;;;;;5.20;1.40;;;15.70;94.30;;;;;;5033274;28;20079;-57
2022/08/28 07:19:16;;;;;;;5.28;1.27;;;15.70;94.20;;;;;;5034079;28;20537;-57
2022/08/28 07:21:44;;;;;;;6.13;1.83;;;15.80;94.10;;;;;;5033780;28;20026;-57
2022/08/28 07:24:11;;;;;;;6.05;1.42;;;15.90;93.90;;;;;;5034124;28;20034;-57
2022/08/28 07:26:39;;;;;;;4.50;1.25;;;16.00;93.80;;;;;;5033672;28;20148;-57
2022/08/28 07:29:06;;;;;;;4.75;1.60;;;16.10;93.70;;;;;;5033958;28;20053;-57
2022/08/28 07:31:33;;;;;;;3.28;1.02;;;16.10;93.50;;;;;;5033809;28;20113;-57
2022/08/28 07:33:58;;;;;;;5.47;1.92;;;16.20;93.40;;;;;;5034205;28;20477;-57
2022/08/28 07:36:26;;;;;;;3.35;1.30;;;16.30;93.20;;;;;;5032171;28;20025;-57
2022/08/28 07:38:52;;;;;;;4.22;1.20;;;16.30;92.90;;;;;;5032425;28;20071;-57
2022/08/28 07:41:21;;;;;;;4.85;1.55;;;16.40;92.70;;;;;;5032113;28;21036;-57
2022/08/28 07:46:31;;;;;;;5.57;1.23;;;16.60;92.20;;;;;;5032551;28;20512;-58
2022/08/28 07:49:00;;;;;;;2.65;1.10;;;16.70;91.90;;;;;;5032714;28;20065;-57
2022/08/28 07:51:26;;;;;;;7.33;1.33;;;16.70;91.60;;;;;;5032989;28;20068;-58
2022/08/28 07:53:55;;;;;;;2.72;1.00;;;16.80;91.40;;;;;;5033459;28;20064;-57
2022/08/28 07:56:21;;;;;;;3.70;1.20;;;16.90;91.10;;;;;;5033391;28;20104;-57
2022/08/28 07:58:47;;;;;;;4.97;1.10;;;17.00;90.90;;;;;;5033415;28;20104;-58
2022/08/28 08:01:13;;;;;;;5.18;1.30;;;17.10;90.60;;;;;;5032822;28;20043;-57
2022/08/28 08:03:39;;;;;;;3.40;1.00;;;17.20;90.30;;;;;;5033491;28;20072;-58
2022/08/28 08:06:05;;;;;;;4.00;1.27;;;17.40;90.10;;;;;;5032957;28;20401;-57
2022/08/28 08:08:32;;;;;;;6.82;1.58;;;17.50;90.00;;;;;;5033303;28;20026;-57
2022/08/28 08:11:02;;;;;;;4.25;1.08;;;17.50;89.10;;;;;;5032931;28;20131;-58
2022/08/28 08:13:29;;;;;;;2.75;0.70;;;17.60;87.80;;;;;;5031515;28;20022;-57
2022/08/28 08:16:06;;;;;;;5.07;1.67;;;17.70;87.60;;;;;;5031754;28;20540;-58
2022/08/28 08:18:32;;;;;;;3.67;1.10;;;17.80;86.60;;;;;;5029526;28;20029;-57
2022/08/28 08:20:59;;;;;;;4.97;1.20;;;17.90;86.00;;;;;;5031731;28;20101;-57
2022/08/28 08:23:24;;;;;;;4.82;1.10;;;18.00;85.70;;;;;;5032490;28;20071;-57
2022/08/28 08:26:05;;;;;;;3.55;1.08;;;18.00;85.40;;;;;;5030820;28;20025;-57
2022/08/28 08:28:33;;;;;;;5.13;1.20;;;18.20;85.10;;;;;;5030600;28;20023;-57
2022/08/28 08:31:13;;;;;;;4.05;1.27;;;18.20;84.30;;;;;;5031049;28;20018;-58
2022/08/28 08:33:43;;;;;;;6.15;1.30;;;18.40;83.50;;;;;;5030974;28;20029;-57
2022/08/28 08:36:11;;;;;;;7.57;1.42;;;18.40;83.10;;;;;;5031751;28;20504;-57
2022/08/28 08:38:37;;;;;;;3.63;1.20;;;18.50;82.40;;;;;;5031109;28;20029;-57
2022/08/28 08:41:15;;;;;;;3.67;1.15;;;18.60;82.00;;;;;;5031091;28;20052;-58
2022/08/28 08:44:02;;;;;;;4.18;1.45;;;18.80;81.80;;;;;;5031780;28;20029;-58
2022/08/28 08:46:56;;;;;;;3.95;1.20;;;19.00;81.40;;;;;;5029104;28;20025;-58
2022/08/28 08:49:27;;;;;;;4.97;1.23;;;19.20;81.00;;;;;;5032746;28;20032;-58
2022/08/28 08:52:36;;;;;;;4.60;0.93;;;19.30;80.50;;;;;;5032083;28;20103;-57
2022/08/28 08:55:10;;;;;;;4.25;1.58;;;19.50;79.90;;;;;;5021690;28;20069;-57
2022/08/28 08:57:37;;;;;;;3.13;1.17;;;19.60;79.50;;;;;;5023075;28;20041;-57
2022/08/28 09:00:08;;;;;;;3.15;0.68;;;19.80;78.20;;;;;;5032063;28;20465;-58
2022/08/28 09:02:39;;;;;;;3.97;1.10;;;20.00;77.00;;;;;;5032944;28;20061;-57
2022/08/28 09:05:12;;;;;;;2.63;1.00;;;20.10;75.50;;;;;;5032325;28;20040;-57
2022/08/28 09:07:43;;;;;;;4.05;0.93;;;20.20;73.60;;;;;;5032359;28;20033;-58
2022/08/28 09:10:12;;;;;;;5.32;1.25;;;20.30;73.10;;;;;;5032353;28;20021;-57
2022/08/28 09:13:16;;;;;;;3.05;1.27;;;20.30;71.90;;;;;;5030634;28;20181;-57
2022/08/28 09:15:45;;;;;;;2.70;0.85;;;20.50;72.00;;;;;;5028583;28;20128;-57
2022/08/28 09:18:26;;;;;;;4.18;0.70;;;20.50;72.00;;;;;;5032172;28;20385;-57
2022/08/28 09:20:55;;;;;;;2.92;0.70;;;20.60;71.60;;;;;;5030529;28;20032;-57
2022/08/28 09:23:22;;;;;;;3.17;0.80;;;20.80;70.70;;;;;;5028905;28;20034;-57
2022/08/28 09:25:58;;;;;;;5.10;1.00;;;20.90;69.60;;;;;;5035478;28;20025;-58
2022/08/28 09:28:34;;;;;;;3.47;0.82;;;21.00;69.20;;;;;;5030696;28;20030;-58
2022/08/28 09:31:09;;;;;;;2.90;1.00;;;21.10;68.80;;;;;;5036136;28;20477;-58
2022/08/28 09:33:51;;;;;;;2.15;0.65;;;21.20;68.30;;;;;;5036072;28;20033;-58
2022/08/28 09:36:36;;;;;;;2.88;0.80;;;21.30;68.10;;;;;;5035880;28;20498;-57
2022/08/28 09:39:29;;;;;;;1.60;0.60;;;21.50;67.50;;;;;;5036053;28;20095;-57
2022/08/28 09:44:48;;;;;;;2.25;0.70;;;21.60;66.00;;;;;;5032213;28;20500;-57
2022/08/28 09:47:52;;;;;;;4.20;0.80;;;21.70;65.90;;;;;;5036020;28;20021;-57
2022/08/28 09:50:18;;;;;;;3.10;0.80;;;21.80;65.80;;;;;;5031046;28;20056;-58
2022/08/28 09:52:45;;;;;;;4.43;1.00;;;21.90;64.80;;;;;;5035744;28;20481;-57
2022/08/28 09:55:17;;;;;;;3.05;0.80;;;21.90;64.00;;;;;;5035805;28;20032;-57
2022/08/28 09:57:45;;;;;;;2.13;0.60;;;22.00;63.70;;;;;;5033787;28;20032;-58
2022/08/28 10:00:11;;;;;;;4.03;1.00;;;22.10;64.00;;;;;;5034362;28;20014;-58
2022/08/28 10:02:49;;;;;;;3.53;0.77;;;22.20;63.30;;;;;;5034493;28;20014;-58
2022/08/28 10:05:22;;;;;;;2.95;0.85;;;22.20;62.80;;;;;;5035121;28;20628;-58
2022/08/28 10:07:54;;;;;;;2.00;0.73;;;22.20;62.80;;;;;;5034803;28;20041;-57
2022/08/28 10:10:32;;;;;;;2.53;0.80;;;22.20;63.10;;;;;;5023138;28;20026;-57
2022/08/28 10:13:12;;;;;;;2.17;0.80;;;22.30;62.90;;;;;;5035525;28;20025;-58
2022/08/28 10:16:02;;;;;;;2.38;0.90;;;22.40;62.40;;;;;;5034899;28;20018;-57
2022/08/28 10:18:34;;;;;;;;;;;22.50;62.30;;;;;;5034648;28;20109;-58
2022/08/28 10:21:20;;;;;;;3.22;0.73;;;22.60;62.60;;;;;;5035495;28;20391;-57
2022/08/28 10:24:00;;;;;;;3.72;0.85;;;22.80;61.20;;;;;;5033765;28;20512;-58
2022/08/28 10:26:48;;;;;;;2.92;1.13;;;22.90;60.60;;;;;;5033808;28;20572;-58
2022/08/28 10:29:32;;;;;;;1.90;0.63;;;22.90;60.20;;;;;;5034038;28;20575;-57
2022/08/28 10:32:15;;;;;;;2.38;0.60;;;22.80;59.40;;;;;;5035035;28;20022;-58
2022/08/28 10:34:52;;;;;;;1.45;0.70;;;22.90;59.70;;;;;;5028432;28;20030;-58
2022/08/28 10:37:43;;;;;;;3.60;0.70;;;23.00;59.50;;;;;;5035141;28;20049;-58
2022/08/28 10:40:31;;;;;;;2.03;1.02;;;23.00;59.20;;;;;;5034632;28;20473;-58
2022/08/28 10:43:10;;;;;;;2.25;0.70;;;23.20;58.90;;;;;;5034567;28;20112;-58
2022/08/28 10:45:37;;;;;;;2.97;0.80;;;23.20;58.10;;;;;;5026468;28;20095;-58
2022/08/28 10:48:16;;;;;;;1.48;0.55;;;23.40;58.10;;;;;;5034794;28;20021;-58
2022/08/28 10:51:01;;;;;;;1.90;0.73;;;23.50;57.60;;;;;;5033920;28;20434;-58
2022/08/28 10:53:36;;;;;;;1.80;0.63;;;23.60;57.50;;;;;;5033728;28;20021;-58
2022/08/28 10:56:16;;;;;;;1.88;0.60;;;23.70;57.20;;;;;;5033403;28;20025;-58
2022/08/28 10:58:41;;;;;;;3.45;0.73;;;24.00;57.00;;;;;;5033575;28;20018;-58
2022/08/28 11:01:40;;;;;;;3.05;0.70;;;24.30;56.60;;;;;;5033070;28;20246;-58
2022/08/28 11:04:19;;;;;;;2.42;0.98;;;24.90;56.50;;;;;;5030396;28;20072;-58
2022/08/28 11:06:59;;;;;;;1.98;0.60;;;26.20;54.60;;;;;;5031596;28;20436;-58
2022/08/28 11:09:27;;;;;;;2.05;0.73;;;26.30;52.60;;;;;;5031277;28;20025;-58
2022/08/28 11:12:38;;;;;;;3.00;0.82;;;26.20;52.10;;;;;;5031946;28;20021;-58
2022/08/28 11:15:30;;;;;;;1.58;0.70;;;27.10;51.50;;;;;;5028101;28;20033;-58
2022/08/28 11:18:14;;;;;;;1.30;0.60;;;29.50;49.80;;;;;;5029506;28;20044;-58
2022/08/28 11:20:53;;;;;;;2.20;0.95;;;31.30;46.90;;;;;;5030994;28;20095;-58
2022/08/28 11:23:22;;;;;;;0.85;0.60;;;31.90;45.20;;;;;;5034210;28;20021;-58
2022/08/28 11:26:05;;;;;;;1.55;0.70;;;31.90;44.50;;;;;;5031584;28;20092;-58
2022/08/28 11:28:33;;;;;;;1.00;0.50;;;31.50;44.00;;;;;;5032043;28;20025;-58
2022/08/28 11:31:05;;;;;;;1.45;0.60;;;30.90;44.20;;;;;;5032568;28;20034;-58
2022/08/28 11:33:51;;;;;;;3.58;0.82;;;30.30;44.90;;;;;;5032016;28;20053;-58
2022/08/28 11:36:19;;;;;;;2.97;0.90;;;29.70;45.00;;;;;;5032119;28;20014;-58
2022/08/28 11:38:45;;;;;;;1.80;0.82;;;29.40;45.90;;;;;;5031257;28;20041;-58
2022/08/28 11:41:25;;;;;;;1.58;0.70;;;30.60;45.60;;;;;;5031354;28;20025;-58
2022/08/28 11:44:13;;;;;;;1.95;0.70;;;31.80;44.80;;;;;;5030717;28;20045;-58
2022/08/28 11:46:42;;;;;;;1.98;0.70;;;32.40;43.20;;;;;;5022493;28;20493;-58
2022/08/28 11:49:23;;;;;;;2.47;0.95;;;32.90;42.40;;;;;;5030298;28;20553;-58
2022/08/28 11:52:08;;;;;;;2.67;0.70;;;34.00;42.10;;;;;;5030675;28;20025;-58
2022/08/28 11:55:02;;;;;;;2.05;0.80;;;34.90;40.60;;;;;;5021687;28;20030;-59
2022/08/28 11:57:48;;;;;;;2.38;0.80;;;35.10;39.10;;;;;;5032012;28;20030;-59
2022/08/28 12:00:39;;;;;;;1.90;0.75;;;34.50;38.70;;;;;;5032048;28;20026;-59
2022/08/28 12:03:14;;;;;;;2.15;0.63;;;33.40;39.00;;;;;;5030223;28;20034;-58
2022/08/28 12:05:43;;;;;;;2.28;0.70;;;32.50;40.00;;;;;;5029208;28;20436;-58
2022/08/28 12:08:10;;;;;;;0.85;0.60;;;32.10;40.50;;;;;;5031706;28;20021;-58
2022/08/28 12:10:52;;;;;;;1.60;0.70;;;31.70;40.70;;;;;;5031744;28;20029;-59
2022/08/28 12:13:50;;;;;;;3.10;0.70;;;31.80;41.10;;;;;;5029126;28;20026;-58
2022/08/28 12:16:16;;;;;;;2.28;1.02;;;32.10;41.20;;;;;;5008102;28;20101;-59
2022/08/28 12:18:45;;;;;;;2.15;0.82;;;32.50;40.60;;;;;;5031648;28;20021;-58
2022/08/28 12:21:19;;;;;;;;;;;32.60;40.00;;;;;;5032139;28;20025;-58
2022/08/28 12:23:59;;;;;;;1.08;0.77;;;32.60;40.50;;;;;;5030016;28;19936;-58
2022/08/28 12:26:34;;;;;;;1.30;0.60;;;32.40;40.10;;;;;;5031791;28;20017;-58
2022/08/28 12:29:05;;;;;;;2.05;0.80;;;32.10;40.10;;;;;;5029025;28;20041;-59
2022/08/28 12:34:43;;;;;;;2.97;0.70;;;31.50;40.20;;;;;;5030861;28;20051;-59
2022/08/28 12:37:32;;;;;;;2.13;0.60;;;31.70;40.80;;;;;;5031159;28;20446;-58
2022/08/28 12:40:11;;;;;;;0.90;0.60;;;32.20;40.60;;;;;;5026439;28;20017;-59
2022/08/28 12:42:43;;;;;;;0.80;0.52;;;32.70;40.50;;;;;;5030875;28;20029;-59
2022/08/28 12:45:15;;;;;;;1.33;0.70;;;33.00;40.00;;;;;;5029859;28;20033;-59
2022/08/28 12:47:42;;;;;;;0.93;0.70;;;33.00;39.70;;;;;;5028700;28;20477;-59
2022/08/28 12:50:26;;;;;;;1.35;0.70;;;33.10;39.40;;;;;;5029673;28;20072;-59
2022/08/28 12:52:55;;;;;;;1.58;0.70;;;33.20;38.70;;;;;;5029540;28;20033;-59
2022/08/28 12:55:24;;;;;;;2.65;0.70;;;33.00;38.30;;;;;;5027191;28;20488;-59
2022/08/28 12:57:51;;;;;;;1.63;0.80;;;32.50;37.90;;;;;;5028093;28;20061;-58
2022/08/28 13:00:20;;;;;;;1.33;0.50;;;32.20;38.40;;;;;;5028368;28;20024;-58
2022/08/28 13:02:46;;;;;;;1.65;0.70;;;31.90;38.90;;;;;;5028876;28;20021;-59
2022/08/28 13:05:34;;;;;;;3.83;0.80;;;31.40;39.20;;;;;;5030598;28;20017;-59
2022/08/28 13:08:03;;;;;;;2.78;0.73;;;31.10;39.30;;;;;;5025649;28;20026;-58
2022/08/28 13:13:45;;;;;;;2.17;0.70;;;31.00;40.00;;;;;;5024460;28;20044;-58
2022/08/28 13:16:32;;;;;;;1.38;0.60;;;31.30;39.60;;;;;;5026732;28;20017;-59
2022/08/28 13:19:03;;;;;;;1.00;0.70;;;31.60;39.60;;;;;;5032312;28;20122;-59